Time;durP1;ratioP1;P1;durP2;ratioP2;P2;SDS_P1;SDS_P2;PMS_P1;PMS_P2;Temp;Humidity;BMP_temperature;BMP_pressure;BME280_temperature;BME280_humidity;BME280_pressure;Samples;Min_cycle;Max_cycle;Signal;HPM_P1;HPM_P2
2022/05/21 05:00:18;;;;;;;2.80;2.53;;;17.30;97.20;;;;;;1727321;28;20177;-74
2022/05/21 05:01:09;;;;;;;2.95;2.65;;;17.40;97.20;;;;;;1727394;28;20204;-74
2022/05/21 05:02:00;;;;;;;4.73;2.40;;;17.40;97.20;;;;;;1727412;28;20200;-74
2022/05/21 05:02:51;;;;;;;2.83;2.30;;;17.40;97.20;;;;;;1727436;28;20454;-74
2022/05/21 05:03:43;;;;;;;2.70;2.50;;;17.40;97.20;;;;;;1727392;28;20685;-74
2022/05/21 05:04:34;;;;;;;3.00;2.70;;;17.40;97.20;;;;;;1727150;28;20443;-74
2022/05/21 05:05:26;;;;;;;3.30;3.00;;;17.40;97.20;;;;;;1727220;28;20207;-74
2022/05/21 05:06:16;;;;;;;2.65;2.40;;;17.30;97.20;;;;;;1726883;28;20930;-74
2022/05/21 05:07:09;;;;;;;2.73;2.53;;;17.30;97.20;;;;;;1727318;28;20536;-74
2022/05/21 05:08:01;;;;;;;2.95;2.20;;;17.30;97.20;;;;;;1727368;28;20579;-74
2022/05/21 05:08:52;;;;;;;2.67;2.47;;;17.30;97.20;;;;;;1720641;28;20205;-74
2022/05/21 05:09:45;;;;;;;2.53;2.30;;;17.30;97.20;;;;;;1720278;28;20208;-74
2022/05/21 05:10:37;;;;;;;3.15;2.65;;;17.30;97.20;;;;;;1720490;28;20389;-75
2022/05/21 05:11:28;;;;;;;2.58;2.38;;;17.30;97.20;;;;;;1723693;28;20758;-74
2022/05/21 05:12:19;;;;;;;3.03;2.80;;;17.30;97.20;;;;;;1727332;28;20604;-74
2022/05/21 05:13:10;;;;;;;2.85;2.63;;;17.30;97.20;;;;;;1727392;28;20204;-75
2022/05/21 05:14:03;;;;;;;2.95;2.75;;;17.30;97.20;;;;;;1727217;28;20270;-74
2022/05/21 05:14:53;;;;;;;3.45;2.72;;;17.40;97.20;;;;;;1727089;28;20224;-74
2022/05/21 05:15:47;;;;;;;3.10;2.77;;;17.40;97.20;;;;;;1727446;28;20196;-74
2022/05/21 05:16:37;;;;;;;4.13;2.60;;;17.40;97.20;;;;;;1728156;28;20243;-74
2022/05/21 05:17:30;;;;;;;3.40;2.60;;;17.40;97.20;;;;;;1728816;28;20212;-74
2022/05/21 05:18:21;;;;;;;2.30;2.10;;;17.40;97.20;;;;;;1728686;28;20305;-74
2022/05/21 05:19:13;;;;;;;2.70;2.50;;;17.50;97.20;;;;;;1728385;28;20210;-74
2022/05/21 05:20:05;;;;;;;2.10;2.00;;;17.50;97.20;;;;;;1728732;28;20511;-74
2022/05/21 05:20:57;;;;;;;2.60;2.40;;;17.50;97.20;;;;;;1728563;28;20193;-74
2022/05/21 05:21:47;;;;;;;3.40;2.50;;;17.50;97.20;;;;;;1728330;28;20192;-74
2022/05/21 05:22:39;;;;;;;2.90;2.00;;;17.60;97.20;;;;;;1728618;28;20200;-74
2022/05/21 05:23:30;;;;;;;3.25;2.67;;;17.60;97.20;;;;;;1728444;28;20239;-74
2022/05/21 05:24:22;;;;;;;2.50;2.30;;;17.60;97.20;;;;;;1728688;28;20204;-74
2022/05/21 05:25:12;;;;;;;3.35;2.55;;;17.60;97.20;;;;;;1728530;28;20471;-75
2022/05/21 05:26:04;;;;;;;2.70;2.50;;;17.70;97.20;;;;;;1728580;28;20192;-74
2022/05/21 05:26:55;;;;;;;4.03;2.17;;;17.70;97.20;;;;;;1728660;28;20235;-74
2022/05/21 05:27:46;;;;;;;2.90;2.20;;;17.70;97.20;;;;;;1728693;28;20201;-74
2022/05/21 05:28:38;;;;;;;2.83;2.38;;;17.70;97.20;;;;;;1728428;28;20494;-74
2022/05/21 05:29:29;;;;;;;2.97;2.40;;;17.80;97.20;;;;;;1728121;28;20201;-74
2022/05/21 05:30:23;;;;;;;2.57;2.37;;;17.80;97.20;;;;;;1728580;28;20298;-74
2022/05/21 05:31:15;;;;;;;2.22;2.00;;;17.80;97.20;;;;;;1728432;28;20238;-74
2022/05/21 05:32:08;;;;;;;2.33;1.83;;;17.80;97.20;;;;;;1728548;28;20208;-74
2022/05/21 05:32:59;;;;;;;3.25;2.45;;;17.80;97.20;;;;;;1728297;28;20228;-74
2022/05/21 05:33:51;;;;;;;1.70;1.60;;;17.80;97.20;;;;;;1728683;28;20197;-74
2022/05/21 05:34:41;;;;;;;2.80;2.15;;;17.90;97.20;;;;;;1728171;28;20220;-74
2022/05/21 05:35:33;;;;;;;2.60;2.20;;;17.90;97.20;;;;;;1728288;28;20251;-74
2022/05/21 05:36:24;;;;;;;2.22;2.03;;;17.90;97.20;;;;;;1728138;28;20263;-74
2022/05/21 05:37:16;;;;;;;2.70;2.13;;;17.90;97.20;;;;;;1728562;28;20212;-74
2022/05/21 05:38:07;;;;;;;2.25;2.05;;;17.90;97.20;;;;;;1728420;28;20477;-74
2022/05/21 05:38:59;;;;;;;3.70;2.00;;;17.90;97.20;;;;;;1728535;28;20200;-74
2022/05/21 05:39:50;;;;;;;3.03;2.28;;;17.90;97.20;;;;;;1728354;28;20252;-74
2022/05/21 05:40:45;;;;;;;2.17;2.07;;;17.90;97.20;;;;;;1728454;28;20259;-74
2022/05/21 05:41:37;;;;;;;3.28;1.90;;;17.90;97.20;;;;;;1728513;28;20208;-74
2022/05/21 05:42:29;;;;;;;2.67;2.25;;;17.90;97.20;;;;;;1728624;28;20619;-74
2022/05/21 05:43:21;;;;;;;2.00;1.85;;;17.90;97.20;;;;;;1728576;28;20228;-74
2022/05/21 05:44:12;;;;;;;2.75;1.95;;;17.90;97.20;;;;;;1728612;28;20200;-74
2022/05/21 05:45:05;;;;;;;2.35;2.10;;;17.90;97.20;;;;;;1728533;28;20785;-74
2022/05/21 05:45:58;;;;;;;2.33;2.10;;;17.90;97.20;;;;;;1728386;28;20192;-74
2022/05/21 05:46:50;;;;;;;2.10;1.60;;;17.90;97.20;;;;;;1728213;28;20210;-74
2022/05/21 05:47:42;;;;;;;2.75;2.10;;;17.90;97.20;;;;;;1728493;28;20283;-74
2022/05/21 05:48:33;;;;;;;2.38;1.65;;;18.00;97.20;;;;;;1728562;28;20616;-74
2022/05/21 05:49:24;;;;;;;3.00;1.63;;;18.00;97.20;;;;;;1727878;28;20219;-74
2022/05/21 05:50:15;;;;;;;2.63;2.08;;;18.00;97.20;;;;;;1728390;28;20257;-74
2022/05/21 05:51:07;;;;;;;2.23;1.67;;;18.10;97.20;;;;;;1728585;28;20200;-74
2022/05/21 05:51:58;;;;;;;5.15;1.77;;;18.10;97.20;;;;;;1728638;28;20205;-74
2022/05/21 05:52:50;;;;;;;2.37;1.83;;;18.20;97.20;;;;;;1728569;28;20200;-74
2022/05/21 05:53:41;;;;;;;2.42;1.60;;;18.20;97.20;;;;;;1728272;28;20193;-74
2022/05/21 05:54:33;;;;;;;2.50;1.60;;;18.20;97.20;;;;;;1728611;28;20232;-74
2022/05/21 05:55:24;;;;;;;3.35;1.70;;;18.20;97.20;;;;;;1728491;28;20205;-74
2022/05/21 05:56:16;;;;;;;4.20;1.97;;;18.20;97.20;;;;;;1728429;28;20197;-74
2022/05/21 05:57:09;;;;;;;1.40;1.30;;;18.20;97.20;;;;;;1728563;28;20215;-74
2022/05/21 05:59:48;;;;;;;1.90;1.70;;;18.20;97.20;;;;;;1728540;28;20255;-74
2022/05/21 06:00:21;;;;;;;1.02;0.93;;;18.30;97.20;;;;;;1722111;28;20207;-74
2022/05/21 06:01:12;;;;;;;1.60;1.47;;;18.30;97.20;;;;;;1722159;28;20304;-74
2022/05/21 06:03:16;;;;;;;1.70;1.33;;;18.30;97.20;;;;;;1728827;28;20284;-75
2022/05/21 06:04:06;;;;;;;3.13;1.40;;;18.30;97.20;;;;;;1728687;28;20209;-75
2022/05/21 06:04:58;;;;;;;1.43;1.33;;;18.30;97.20;;;;;;1728394;28;20211;-74
2022/05/21 06:05:50;;;;;;;2.15;1.35;;;18.30;97.20;;;;;;1727974;28;20192;-74
2022/05/21 06:06:41;;;;;;;2.63;1.48;;;18.30;97.20;;;;;;1724006;28;20537;-74
2022/05/21 06:07:33;;;;;;;1.20;1.10;;;18.20;97.20;;;;;;1728552;28;20690;-74
2022/05/21 06:08:25;;;;;;;1.23;1.10;;;18.20;97.20;;;;;;1728433;28;20293;-74
2022/05/21 06:09:15;;;;;;;5.20;1.40;;;18.20;97.20;;;;;;1728176;28;20232;-74
2022/05/21 06:10:08;;;;;;;1.50;1.40;;;18.20;97.20;;;;;;1728580;28;20207;-74
2022/05/21 06:11:00;;;;;;;1.42;1.33;;;18.20;97.20;;;;;;1728411;28;20205;-74
2022/05/21 06:11:51;;;;;;;1.40;1.02;;;18.20;97.20;;;;;;1728551;28;20201;-74
2022/05/21 06:12:43;;;;;;;1.90;1.20;;;18.20;97.20;;;;;;1728218;28;20301;-74
2022/05/21 06:13:34;;;;;;;2.70;1.45;;;18.30;97.20;;;;;;1728461;28;20205;-74
2022/05/21 06:14:26;;;;;;;1.20;1.10;;;18.30;97.20;;;;;;1728419;28;20200;-74
2022/05/21 06:15:17;;;;;;;3.58;1.33;;;18.30;97.20;;;;;;1728488;28;20343;-74
2022/05/21 06:16:09;;;;;;;1.58;1.10;;;18.30;97.20;;;;;;1728483;28;20647;-74
2022/05/21 06:17:00;;;;;;;2.00;1.10;;;18.30;97.20;;;;;;1728083;28;20204;-74
2022/05/21 06:17:53;;;;;;;2.23;1.37;;;18.40;97.20;;;;;;1728375;28;20200;-74
2022/05/21 06:18:45;;;;;;;1.50;1.40;;;18.40;97.20;;;;;;1728338;28;20200;-74
2022/05/21 06:19:36;;;;;;;3.17;1.40;;;18.40;97.20;;;;;;1728128;28;20201;-74
2022/05/21 06:20:27;;;;;;;1.40;1.10;;;18.50;97.20;;;;;;1728224;28;20316;-74
2022/05/21 06:21:19;;;;;;;2.10;1.23;;;18.50;97.20;;;;;;1728215;28;20196;-75
2022/05/21 06:22:10;;;;;;;1.85;1.40;;;18.50;97.20;;;;;;1728338;28;20443;-74
2022/05/21 06:23:01;;;;;;;1.43;1.33;;;18.50;97.20;;;;;;1728246;28;20200;-74
2022/05/21 06:23:53;;;;;;;1.40;1.30;;;18.60;97.20;;;;;;1728153;28;20671;-74
2022/05/21 06:24:45;;;;;;;2.20;1.20;;;18.50;97.20;;;;;;1728203;28;20193;-74
2022/05/21 06:25:36;;;;;;;2.25;1.00;;;18.50;97.20;;;;;;1728310;28;20679;-74
2022/05/21 06:26:27;;;;;;;1.60;1.10;;;18.50;97.20;;;;;;1728546;28;20671;-74
2022/05/21 06:27:18;;;;;;;2.63;1.48;;;18.50;97.20;;;;;;1727679;28;20451;-75
2022/05/21 06:28:10;;;;;;;1.40;1.30;;;18.50;97.20;;;;;;1727829;28;20203;-75
2022/05/21 06:29:01;;;;;;;1.40;1.13;;;18.50;97.20;;;;;;1727897;28;20209;-75
2022/05/21 06:29:53;;;;;;;3.50;1.47;;;18.50;97.20;;;;;;1728082;28;20203;-75
2022/05/21 06:30:45;;;;;;;1.25;1.05;;;18.60;97.20;;;;;;1728273;28;20201;-75
2022/05/21 06:31:38;;;;;;;2.50;1.02;;;18.60;97.20;;;;;;1728346;28;20205;-75
2022/05/21 06:32:29;;;;;;;1.80;1.30;;;18.70;97.20;;;;;;1728276;28;20200;-75
2022/05/21 06:33:24;;;;;;;1.83;1.20;;;18.70;97.20;;;;;;1728158;28;20254;-75
2022/05/21 06:34:15;;;;;;;1.42;1.33;;;18.80;97.20;;;;;;1728009;28;20261;-75
2022/05/21 06:35:07;;;;;;;2.40;1.00;;;18.80;97.20;;;;;;1727819;28;20233;-75
2022/05/21 06:36:05;;;;;;;1.55;1.13;;;18.90;97.20;;;;;;1728307;28;20208;-75
2022/05/21 06:36:56;;;;;;;2.60;1.15;;;18.90;97.20;;;;;;1727905;28;20675;-75
2022/05/21 06:37:47;;;;;;;2.70;1.40;;;19.00;97.20;;;;;;1728372;28;20239;-75
2022/05/21 06:38:40;;;;;;;2.30;1.27;;;19.00;97.20;;;;;;1728367;28;20200;-75
2022/05/21 06:39:32;;;;;;;2.95;1.20;;;19.00;97.20;;;;;;1728022;28;20200;-75
2022/05/21 06:40:23;;;;;;;3.53;1.50;;;19.00;97.20;;;;;;1728021;28;20200;-75
2022/05/21 06:41:14;;;;;;;3.05;1.25;;;19.10;97.20;;;;;;1728121;28;20204;-75
2022/05/21 06:42:07;;;;;;;1.53;0.90;;;19.10;97.20;;;;;;1728214;28;20205;-75
2022/05/21 06:43:00;;;;;;;1.70;1.10;;;19.20;97.20;;;;;;1728225;28;20200;-75
2022/05/21 06:43:52;;;;;;;2.00;1.00;;;19.20;97.20;;;;;;1728175;28;20204;-75
2022/05/21 06:44:43;;;;;;;2.85;1.15;;;19.20;97.20;;;;;;1728064;28;20274;-75
2022/05/21 06:45:36;;;;;;;1.37;1.10;;;19.20;97.20;;;;;;1728199;28;20204;-75
2022/05/21 06:46:27;;;;;;;1.52;1.20;;;19.30;97.20;;;;;;1727944;28;20204;-75
2022/05/21 06:47:19;;;;;;;1.87;1.40;;;19.30;97.20;;;;;;1727912;28;20189;-75
2022/05/21 06:48:10;;;;;;;1.42;0.95;;;19.30;97.20;;;;;;1728144;28;20538;-75
2022/05/21 06:49:03;;;;;;;1.20;1.00;;;19.40;97.20;;;;;;1727810;28;20205;-75
2022/05/21 06:49:55;;;;;;;3.05;1.27;;;19.40;97.20;;;;;;1727894;28;20204;-75
2022/05/21 06:50:47;;;;;;;1.30;1.20;;;19.50;97.20;;;;;;1728060;28;20275;-75
2022/05/21 06:51:38;;;;;;;1.98;0.80;;;19.50;97.20;;;;;;1728108;28;20224;-75
2022/05/21 06:52:30;;;;;;;1.20;1.10;;;19.50;97.20;;;;;;1728103;28;20208;-75
2022/05/21 06:53:21;;;;;;;1.80;0.90;;;19.60;97.20;;;;;;1727678;28;20215;-75
2022/05/21 06:54:13;;;;;;;1.47;0.90;;;19.60;97.20;;;;;;1728068;28;20291;-75
2022/05/21 06:55:05;;;;;;;1.98;1.00;;;19.60;97.20;;;;;;1727953;28;20696;-75
2022/05/21 06:55:57;;;;;;;3.53;1.20;;;19.70;97.20;;;;;;1728072;28;20708;-75
2022/05/21 06:56:48;;;;;;;2.55;1.50;;;19.70;97.20;;;;;;1727869;28;20212;-75
2022/05/21 06:57:40;;;;;;;1.65;1.25;;;19.80;97.20;;;;;;1727962;28;20193;-75
2022/05/21 06:58:30;;;;;;;1.55;1.00;;;19.80;97.20;;;;;;1728153;28;20211;-75
2022/05/21 06:59:22;;;;;;;2.80;1.70;;;19.80;97.20;;;;;;1727807;28;20207;-75
2022/05/21 07:00:14;;;;;;;3.10;1.50;;;19.80;97.20;;;;;;1728038;28;20211;-75
2022/05/21 07:01:06;;;;;;;2.10;1.38;;;19.80;97.20;;;;;;1728000;28;20628;-75
2022/05/21 07:01:57;;;;;;;3.97;1.70;;;19.80;97.20;;;;;;1727834;28;20239;-75
2022/05/21 07:02:49;;;;;;;1.50;1.20;;;19.90;97.20;;;;;;1728206;28;20207;-76
2022/05/21 07:03:40;;;;;;;1.83;1.20;;;19.90;97.20;;;;;;1728013;28;20208;-75
2022/05/21 07:08:00;;;;;;;2.35;1.27;;;19.90;97.20;;;;;;1721359;28;20727;-75
2022/05/21 07:08:51;;;;;;;1.95;1.30;;;19.90;97.20;;;;;;1725046;28;20331;-75
2022/05/21 07:09:43;;;;;;;1.30;1.10;;;20.00;97.20;;;;;;1727837;28;20230;-75
2022/05/21 07:10:33;;;;;;;2.60;1.27;;;20.00;97.20;;;;;;1727888;28;20455;-75
2022/05/21 07:11:26;;;;;;;1.53;1.10;;;20.00;97.20;;;;;;1727931;28;20203;-75
2022/05/21 07:12:17;;;;;;;2.35;1.42;;;20.10;97.20;;;;;;1727699;28;20200;-75
2022/05/21 07:13:09;;;;;;;3.43;1.20;;;20.10;97.20;;;;;;1727890;28;20208;-75
2022/05/21 07:14:00;;;;;;;2.00;1.10;;;20.10;97.20;;;;;;1728001;28;20444;-75
2022/05/21 07:14:52;;;;;;;2.20;1.43;;;20.10;97.20;;;;;;1727719;28;20199;-75
2022/05/21 07:15:43;;;;;;;2.50;1.48;;;20.10;97.20;;;;;;1727987;28;20487;-75
2022/05/21 07:16:34;;;;;;;1.70;1.05;;;20.10;97.20;;;;;;1727909;28;20208;-75
2022/05/21 07:17:25;;;;;;;3.25;1.20;;;20.20;97.20;;;;;;1727342;28;20579;-75
2022/05/21 07:18:18;;;;;;;1.70;1.10;;;20.20;97.20;;;;;;1727900;28;20574;-75
2022/05/21 07:19:09;;;;;;;3.40;1.20;;;20.30;97.20;;;;;;1727675;28;20242;-75
2022/05/21 07:20:04;;;;;;;2.20;1.40;;;20.30;97.20;;;;;;1727833;28;20197;-75
2022/05/21 07:20:56;;;;;;;1.52;1.35;;;20.30;97.20;;;;;;1727874;28;20478;-75
2022/05/21 07:21:47;;;;;;;1.55;1.00;;;20.30;97.20;;;;;;1727965;28;20203;-75
2022/05/21 07:22:40;;;;;;;1.85;1.10;;;20.40;97.20;;;;;;1727682;28;20192;-75
2022/05/21 07:23:32;;;;;;;1.80;1.20;;;20.40;97.20;;;;;;1727694;28;20283;-75
2022/05/21 07:24:24;;;;;;;1.10;1.00;;;20.40;97.20;;;;;;1727888;28;20239;-75
2022/05/21 07:25:18;;;;;;;3.65;1.10;;;20.40;97.20;;;;;;1727799;28;20216;-75
2022/05/21 07:26:09;;;;;;;1.30;1.10;;;20.40;97.20;;;;;;1727823;28;20247;-75
2022/05/21 07:27:02;;;;;;;1.87;0.90;;;20.40;97.20;;;;;;1727903;28;20219;-75
2022/05/21 07:27:52;;;;;;;1.92;1.10;;;20.50;97.20;;;;;;1727877;28;20265;-75
2022/05/21 07:28:44;;;;;;;5.80;1.07;;;20.50;97.20;;;;;;1727463;28;20196;-75
2022/05/21 07:29:35;;;;;;;1.33;0.80;;;20.50;97.20;;;;;;1727401;28;20224;-75
2022/05/21 07:30:27;;;;;;;1.10;1.00;;;20.50;97.20;;;;;;1727639;28;20197;-75
2022/05/21 07:31:18;;;;;;;2.10;0.80;;;20.40;97.20;;;;;;1727783;28;20204;-75
2022/05/21 07:32:17;;;;;;;2.50;1.00;;;20.40;97.20;;;;;;1727948;28;20251;-75
2022/05/21 07:33:10;;;;;;;1.35;0.85;;;20.30;97.20;;;;;;1727903;28;20910;-75
2022/05/21 07:34:01;;;;;;;2.08;1.00;;;20.30;97.20;;;;;;1727441;28;20238;-75
2022/05/21 07:34:58;;;;;;;2.60;1.30;;;20.30;97.20;;;;;;1720977;28;20200;-75
2022/05/21 07:35:50;;;;;;;2.38;0.90;;;20.30;97.20;;;;;;1727146;28;20262;-75
2022/05/21 07:36:42;;;;;;;3.85;0.90;;;20.30;97.20;;;;;;1727969;28;20204;-75
2022/05/21 07:37:33;;;;;;;1.63;0.98;;;20.30;97.20;;;;;;1728050;28;20204;-75
2022/05/21 07:38:25;;;;;;;1.53;0.90;;;20.40;97.20;;;;;;1727784;28;20715;-75
2022/05/21 07:39:15;;;;;;;2.83;0.98;;;20.40;97.20;;;;;;1727447;28;20660;-75
2022/05/21 07:40:09;;;;;;;1.27;0.90;;;20.40;97.20;;;;;;1727796;28;20541;-75
2022/05/21 07:41:00;;;;;;;1.13;0.90;;;20.40;97.20;;;;;;1727799;28;20196;-75
2022/05/21 07:41:52;;;;;;;1.70;0.90;;;20.40;97.20;;;;;;1727797;28;20327;-75
2022/05/21 07:42:43;;;;;;;2.65;1.05;;;20.40;97.20;;;;;;1727916;28;20475;-75
2022/05/21 07:43:34;;;;;;;1.67;0.90;;;20.40;97.20;;;;;;1727513;28;20200;-75
2022/05/21 07:44:25;;;;;;;1.90;1.15;;;20.50;97.20;;;;;;1727746;28;20211;-76
2022/05/21 07:45:19;;;;;;;1.33;0.90;;;20.50;97.20;;;;;;1727675;28;20226;-75
2022/05/21 07:46:11;;;;;;;1.55;0.70;;;20.50;97.20;;;;;;1727787;28;20216;-75
2022/05/21 07:47:02;;;;;;;2.78;0.80;;;20.60;97.20;;;;;;1727683;28;20589;-75
2022/05/21 07:47:54;;;;;;;2.65;1.00;;;20.60;97.20;;;;;;1727798;28;20575;-75
2022/05/21 07:48:45;;;;;;;1.42;1.02;;;20.70;97.20;;;;;;1727534;28;20255;-76
2022/05/21 07:49:36;;;;;;;2.00;1.10;;;20.70;97.20;;;;;;1727430;28;20197;-75
2022/05/21 07:50:27;;;;;;;2.05;0.90;;;20.70;97.20;;;;;;1727640;28;20204;-75
2022/05/21 07:51:20;;;;;;;3.67;0.90;;;20.80;97.20;;;;;;1727645;28;20196;-75
2022/05/21 07:52:11;;;;;;;1.35;1.02;;;20.80;97.20;;;;;;1727754;28;20347;-75
2022/05/21 07:53:03;;;;;;;1.53;0.80;;;20.80;97.20;;;;;;1727717;28;20255;-75
2022/05/21 07:53:53;;;;;;;1.55;0.70;;;20.70;97.20;;;;;;1727132;28;20679;-75
2022/05/21 07:54:45;;;;;;;3.40;1.30;;;20.70;97.20;;;;;;1727609;28;20568;-75
2022/05/21 07:55:36;;;;;;;1.60;1.15;;;20.70;97.20;;;;;;1727626;28;20232;-75
2022/05/21 07:56:30;;;;;;;1.43;0.90;;;20.70;97.20;;;;;;1727691;28;20196;-75
2022/05/21 07:57:21;;;;;;;1.50;0.93;;;20.70;97.20;;;;;;1727650;28;20229;-75
2022/05/21 07:58:13;;;;;;;0.90;0.80;;;20.70;97.20;;;;;;1727808;28;20343;-75
2022/05/21 07:59:03;;;;;;;1.55;0.80;;;20.70;97.20;;;;;;1727378;28;20451;-75
2022/05/21 07:59:55;;;;;;;1.47;1.27;;;20.80;97.20;;;;;;1727445;28;20196;-75
2022/05/21 08:00:46;;;;;;;3.17;0.77;;;20.80;97.20;;;;;;1727731;28;20203;-75
2022/05/21 08:01:38;;;;;;;1.23;0.87;;;20.80;97.20;;;;;;1727724;28;20200;-75
2022/05/21 08:02:28;;;;;;;1.15;0.80;;;20.90;97.20;;;;;;1727775;28;20238;-75
2022/05/21 08:03:20;;;;;;;0.90;0.60;;;20.90;97.20;;;;;;1727668;28;20203;-76
2022/05/21 08:04:11;;;;;;;1.27;0.75;;;20.90;97.20;;;;;;1727372;28;20702;-75
2022/05/21 08:05:03;;;;;;;1.60;0.80;;;20.90;97.20;;;;;;1727405;28;20595;-75
2022/05/21 08:05:55;;;;;;;0.93;0.80;;;21.00;97.20;;;;;;1727261;28;20192;-75
2022/05/21 08:06:48;;;;;;;1.40;1.02;;;21.00;97.20;;;;;;1727313;28;20644;-75
2022/05/21 08:07:39;;;;;;;1.45;0.90;;;21.00;97.20;;;;;;1727595;28;20197;-75
2022/05/21 08:08:31;;;;;;;1.23;0.95;;;21.10;97.20;;;;;;1727575;28;20637;-75
2022/05/21 08:09:22;;;;;;;1.42;1.02;;;21.10;97.20;;;;;;1727332;28;20208;-75
2022/05/21 08:10:13;;;;;;;1.90;0.90;;;21.10;97.20;;;;;;1727596;28;20211;-75
2022/05/21 08:11:04;;;;;;;3.70;0.80;;;21.10;97.20;;;;;;1727577;28;20207;-75
2022/05/21 08:11:56;;;;;;;1.13;0.80;;;21.20;97.20;;;;;;1727535;28;20196;-75
2022/05/21 08:12:47;;;;;;;1.45;0.80;;;21.20;97.20;;;;;;1727806;28;20208;-75
2022/05/21 08:13:39;;;;;;;1.20;0.70;;;21.20;97.20;;;;;;1727659;28;20209;-75
2022/05/21 08:14:30;;;;;;;1.13;0.80;;;21.20;97.20;;;;;;1727332;28;20200;-76
2022/05/21 08:15:23;;;;;;;0.90;0.77;;;21.20;97.20;;;;;;1751127;23;20331;-66
2022/05/21 08:16:14;;;;;;;1.60;1.05;;;21.20;97.20;;;;;;1733063;28;20227;-66
2022/05/21 08:17:06;;;;;;;1.75;0.85;;;21.20;97.20;;;;;;1734098;28;20698;-66
2022/05/21 08:17:57;;;;;;;2.30;0.75;;;21.20;97.20;;;;;;1734155;28;20207;-66
2022/05/21 08:18:49;;;;;;;1.00;0.70;;;21.30;97.20;;;;;;1734439;28;20199;-66
2022/05/21 08:19:41;;;;;;;0.90;0.60;;;21.30;97.20;;;;;;1733825;28;20212;-65
2022/05/21 08:20:35;;;;;;;1.13;0.68;;;21.40;97.20;;;;;;1734243;28;20202;-66
2022/05/21 08:21:25;;;;;;;2.22;1.00;;;21.40;97.20;;;;;;1734318;28;20609;-65
2022/05/21 08:26:59;;;;;;;1.23;0.80;;;21.60;97.20;;;;;;1728886;28;20199;-66
2022/05/21 08:27:49;;;;;;;1.83;0.77;;;21.70;97.20;;;;;;1727492;28;20239;-66
2022/05/21 08:28:41;;;;;;;1.50;0.87;;;21.70;97.20;;;;;;1727424;28;20200;-65
2022/05/21 08:29:35;;;;;;;0.93;0.75;;;21.70;97.20;;;;;;1728291;28;20240;-66
2022/05/21 08:30:27;;;;;;;1.10;0.80;;;21.70;97.20;;;;;;1727424;28;20719;-65
2022/05/21 08:31:18;;;;;;;1.20;0.60;;;21.70;97.20;;;;;;1727440;28;20211;-66
2022/05/21 08:32:13;;;;;;;1.30;0.67;;;21.70;97.20;;;;;;1727503;28;20656;-65
2022/05/21 08:33:06;;;;;;;1.27;0.70;;;21.80;97.20;;;;;;1727570;28;20451;-66
2022/05/21 08:33:57;;;;;;;2.10;0.90;;;21.80;97.20;;;;;;1728455;28;20204;-66
2022/05/21 08:34:50;;;;;;;1.63;0.95;;;21.90;97.20;;;;;;1730650;28;20230;-66
2022/05/21 08:35:42;;;;;;;0.80;0.60;;;21.90;97.20;;;;;;1733784;28;20298;-66
2022/05/21 08:36:33;;;;;;;1.65;0.75;;;22.00;97.20;;;;;;1733908;28;20583;-66
2022/05/21 08:37:27;;;;;;;1.67;0.60;;;22.00;97.20;;;;;;1731006;28;20192;-65
2022/05/21 08:38:18;;;;;;;1.00;0.70;;;22.00;97.20;;;;;;1727361;28;20728;-66
2022/05/21 08:39:10;;;;;;;1.90;0.80;;;22.10;97.20;;;;;;1732153;28;20541;-66
2022/05/21 08:40:01;;;;;;;2.25;0.80;;;22.00;97.20;;;;;;1734269;28;20580;-65
2022/05/21 08:40:58;;;;;;;1.20;0.73;;;22.00;97.20;;;;;;1734208;28;20208;-66
2022/05/21 08:41:52;;;;;;;1.50;0.90;;;22.00;97.20;;;;;;1734329;28;20265;-66
2022/05/21 08:42:55;;;;;;;1.08;0.68;;;22.00;97.20;;;;;;1734281;28;20200;-66
2022/05/21 08:43:53;;;;;;;1.80;0.75;;;22.00;97.20;;;;;;1734239;28;20211;-66
2022/05/21 08:44:47;;;;;;;1.20;0.70;;;22.10;97.20;;;;;;1734298;28;20195;-65
2022/05/21 08:45:54;;;;;;;1.10;0.70;;;22.10;97.20;;;;;;1734295;28;20695;-65
2022/05/21 08:47:01;;;;;;;1.73;0.60;;;22.10;97.20;;;;;;1733811;28;20207;-66
2022/05/21 08:47:59;;;;;;;0.90;0.60;;;22.10;97.20;;;;;;1727490;28;20235;-66
2022/05/21 08:48:57;;;;;;;0.90;0.60;;;22.20;97.20;;;;;;1727462;28;20203;-66
2022/05/21 08:49:55;;;;;;;1.45;0.73;;;22.20;97.20;;;;;;1727199;28;20227;-66
2022/05/21 08:50:52;;;;;;;1.25;0.80;;;22.20;97.20;;;;;;1726979;28;20205;-65
2022/05/21 08:51:49;;;;;;;1.65;0.60;;;22.30;97.20;;;;;;1727417;28;20200;-66
2022/05/21 08:52:48;;;;;;;1.45;0.70;;;22.30;97.20;;;;;;1727503;28;20204;-66
2022/05/21 08:53:46;;;;;;;1.35;1.25;;;22.40;97.20;;;;;;1729602;28;20557;-66
2022/05/21 08:54:44;;;;;;;1.10;0.90;;;22.40;97.20;;;;;;1734101;28;20187;-66
2022/05/21 08:55:38;;;;;;;1.25;1.05;;;22.50;97.20;;;;;;1734121;28;20220;-65
2022/05/21 08:56:31;;;;;;;2.40;1.80;;;22.50;97.20;;;;;;1727669;28;20262;-66
2022/05/21 08:57:27;;;;;;;1.80;1.17;;;22.60;97.20;;;;;;1727423;28;20219;-66
2022/05/21 08:58:25;;;;;;;1.20;0.80;;;22.60;97.20;;;;;;1727442;28;20224;-66
2022/05/21 08:59:20;;;;;;;3.05;2.85;;;22.60;97.20;;;;;;1727113;28;20690;-66
2022/05/21 09:00:16;;;;;;;1.42;1.23;;;22.60;97.20;;;;;;1727523;28;20212;-66
2022/05/21 09:01:08;;;;;;;2.03;0.70;;;22.70;97.20;;;;;;1727303;28;20196;-66
2022/05/21 09:02:00;;;;;;;1.20;0.80;;;22.70;97.20;;;;;;1727317;28;20192;-66
2022/05/21 09:02:54;;;;;;;1.45;0.70;;;22.70;97.20;;;;;;1727465;28;20239;-65
2022/05/21 09:03:46;;;;;;;1.98;0.68;;;22.80;97.20;;;;;;1729787;28;20275;-66
2022/05/21 09:04:37;;;;;;;5.78;5.38;;;22.80;97.20;;;;;;1733903;28;20219;-66
2022/05/21 09:05:30;;;;;;;1.95;1.80;;;22.80;97.20;;;;;;1727337;28;20205;-66
2022/05/21 09:06:33;;;;;;;1.50;1.33;;;22.90;97.20;;;;;;1728295;28;20250;-66
2022/05/21 09:07:29;;;;;;;2.47;1.80;;;22.90;97.20;;;;;;1732153;28;20199;-66
2022/05/21 09:08:26;;;;;;;2.85;2.65;;;23.00;97.20;;;;;;1727464;28;20215;-66
2022/05/21 09:09:30;;;;;;;1.60;1.50;;;23.00;97.20;;;;;;1733048;28;20679;-66
2022/05/21 09:10:43;;;;;;;1.42;1.30;;;23.10;97.20;;;;;;1734137;28;20216;-66
2022/05/21 09:11:40;;;;;;;1.00;0.85;;;23.20;97.20;;;;;;1734176;28;20246;-66
2022/05/21 09:12:40;;;;;;;1.00;0.75;;;23.20;97.20;;;;;;1734181;28;20227;-66
2022/05/21 09:13:39;;;;;;;3.42;3.15;;;23.20;97.20;;;;;;1734287;28;20511;-66
2022/05/21 09:14:33;;;;;;;1.77;1.67;;;23.30;97.20;;;;;;1734192;28;20234;-66
2022/05/21 09:16:57;;;;;;;1.10;0.80;;;23.40;97.20;;;;;;1733881;28;20318;-65
2022/05/21 09:17:47;;;;;;;1.65;1.55;;;23.50;97.20;;;;;;1727467;28;20200;-66
2022/05/21 09:18:38;;;;;;;2.60;2.23;;;23.50;97.20;;;;;;1728199;28;20204;-66
2022/05/21 09:19:36;;;;;;;1.90;0.90;;;23.60;97.20;;;;;;1733634;28;20200;-66
2022/05/21 09:20:33;;;;;;;0.90;0.70;;;23.70;97.20;;;;;;1727177;28;20200;-66
2022/05/21 09:21:28;;;;;;;1.30;0.70;;;23.70;97.20;;;;;;1727302;28;20203;-66
2022/05/21 09:22:21;;;;;;;1.10;0.70;;;23.70;97.20;;;;;;1727731;28;20583;-66
2022/05/21 09:23:12;;;;;;;1.58;0.70;;;23.70;97.20;;;;;;1734066;28;20238;-66
2022/05/21 09:24:05;;;;;;;1.10;0.70;;;23.70;97.20;;;;;;1728260;28;20209;-66
2022/05/21 09:24:58;;;;;;;1.10;0.90;;;23.70;97.20;;;;;;1727333;28;20578;-66
2022/05/21 09:26:03;;;;;;;0.90;0.73;;;23.70;97.20;;;;;;1727316;28;20231;-66
2022/05/21 09:26:55;;;;;;;1.73;0.90;;;23.80;97.20;;;;;;1727297;28;20193;-66
2022/05/21 09:27:49;;;;;;;1.75;0.90;;;23.90;97.20;;;;;;1733144;28;20192;-66
2022/05/21 09:28:41;;;;;;;1.00;0.63;;;23.90;97.20;;;;;;1734079;28;20196;-66
2022/05/21 09:29:34;;;;;;;1.10;0.70;;;23.90;97.20;;;;;;1732472;28;20200;-65
2022/05/21 09:30:29;;;;;;;1.20;0.80;;;23.90;97.20;;;;;;1733532;28;20203;-66
2022/05/21 09:31:32;;;;;;;2.72;0.80;;;24.00;97.20;;;;;;1727427;28;20679;-65
2022/05/21 09:32:32;;;;;;;2.05;0.70;;;24.00;97.20;;;;;;1727289;28;20259;-66
2022/05/21 09:33:26;;;;;;;7.75;0.60;;;24.10;97.20;;;;;;1727428;28;20667;-65
2022/05/21 09:34:23;;;;;;;1.40;0.80;;;24.10;97.20;;;;;;1727362;28;20236;-65
2022/05/21 09:35:17;;;;;;;1.60;0.88;;;24.20;97.20;;;;;;1732694;28;20235;-66
2022/05/21 09:36:14;;;;;;;1.60;1.50;;;24.20;97.20;;;;;;1729206;28;20311;-66
2022/05/21 09:37:15;;;;;;;1.70;1.60;;;24.20;97.20;;;;;;1728408;28;20196;-66
2022/05/21 09:38:15;;;;;;;1.85;1.65;;;24.30;97.20;;;;;;1727371;28;20255;-66
2022/05/21 09:39:07;;;;;;;1.35;1.10;;;24.40;97.20;;;;;;1731306;28;20231;-66
2022/05/21 09:40:00;;;;;;;3.20;1.33;;;24.50;97.20;;;;;;1734101;28;20201;-66
2022/05/21 09:41:05;;;;;;;1.30;1.20;;;24.60;97.20;;;;;;1734167;28;20212;-66
2022/05/21 09:42:08;;;;;;;1.20;1.05;;;24.60;97.20;;;;;;1734207;28;20192;-66
2022/05/21 09:45:32;;;;;;;2.63;0.88;;;24.70;97.20;;;;;;1734108;28;20219;-65
2022/05/21 09:46:26;;;;;;;1.02;0.70;;;24.80;97.20;;;;;;1734209;28;20192;-66
2022/05/21 09:47:25;;;;;;;1.30;0.93;;;24.80;97.20;;;;;;1733772;28;20580;-67
2022/05/21 09:48:20;;;;;;;0.90;0.60;;;24.90;97.20;;;;;;1734036;28;20200;-66
2022/05/21 09:49:22;;;;;;;1.08;0.65;;;25.00;97.20;;;;;;1733150;28;20242;-67
2022/05/21 09:50:13;;;;;;;1.27;0.80;;;25.10;97.20;;;;;;1734055;28;20220;-67